Terminal Aerodrome Forecast
Issued by NWS

Home | Current Version | Previous Version | Text Only | Print | Product List | Glossary Off
Versions: 1 2 3 4 5 6 7 8 9 10 11 12 13 14

000
FTUS43 KIWX 250500
TAFSBN
TAF
KSBN 250535Z 2506/2606 VRB03KT P6SM OVC013
      TEMPO 2508/2512 4SM BR
     FM251500 07014G20KT 3SM -SN OVC008
     FM260000 04012G18KT P6SM -SN OVC015=

USA.gov is the U.S. government's official web portal to all federal, state and local government web resources and services.